Date,TemperatureHighF,TemperatureAvgF,TemperatureLowF,DewpointHighF,DewpointAvgF,DewpointLowF,HumidityHigh,HumidityAvg,HumidityLow,PressureMaxIn,PressureMinIn,WindSpeedMaxMPH,WindSpeedAvgMPH,GustSpeedMaxMPH,PrecipitationSumIn
2013-3-1,44.0,37.4,29.0,33.0,26.6,22.0,96,67,47,0.00,40.00,14,5,20,0.00
2013-3-2,40.0,34.0,29.0,22.0,20.1,17.0,64,56,48,0.00,40.00,12,7,21,0.00
2013-3-3,37.0,31.3,27.0,18.0,16.5,14.0,64,54,43,0.00,40.00,20,10,26,0.00
2013-3-4,44.0,34.0,28.0,19.0,16.5,14.0,58,49,34,0.00,40.00,20,12,30,0.00
2013-3-5,50.0,38.5,32.0,26.0,21.9,19.0,71,52,35,0.00,40.00,14,6,27,0.00
2013-3-6,43.0,39.0,34.0,36.0,29.8,24.0,89,69,58,0.00,40.00,22,13,42,0.00
2013-3-7,46.0,39.2,34.0,33.0,25.1,-44.0,90,60,41,0.00,40.00,18,8,30,0.00
2013-3-8,45.0,35.5,30.0,33.0,28.4,21.0,96,78,49,0.00,40.00,14,7,23,0.00
2013-3-9,62.0,42.9,28.0,27.0,21.5,16.0,82,48,17,0.00,40.00,9,3,15,0.00
2013-3-10,58.0,40.0,26.0,34.0,27.7,23.0,94,67,28,0.00,40.00,14,5,18,0.00
2013-3-11,57.0,45.8,38.0,48.0,38.6,34.0,96,79,45,0.00,40.00,10,4,17,0.00
2013-3-12,58.0,52.3,46.0,56.0,48.6,35.0,96,87,70,0.00,40.00,13,7,24,0.00
2013-3-13,50.0,41.5,34.0,39.0,26.6,18.0,82,57,34,0.00,40.00,15,7,29,0.00
2013-3-14,44.0,34.7,30.0,20.0,12.1,6.0,52,40,26,0.00,40.00,23,14,39,0.00
2013-3-15,46.0,37.0,26.0,29.0,18.1,8.0,57,46,35,0.00,40.00,20,8,27,0.00
2013-3-16,44.0,35.4,31.0,33.0,27.0,21.0,94,73,52,0.00,40.00,14,3,24,0.00
2013-3-17,39.0,33.0,28.0,30.0,19.4,13.0,96,61,36,0.00,40.00,14,5,23,0.00
2013-3-18,36.0,29.9,22.0,32.0,20.2,10.0,97,69,43,0.00,40.00,20,8,31,0.00
2013-3-19,50.0,38.8,33.0,38.0,30.5,14.0,97,76,37,0.00,40.00,24,8,39,0.00
2013-3-20,45.0,37.1,31.0,23.0,16.5,14.0,61,44,29,0.00,40.00,19,9,38,0.00
2013-3-21,40.0,33.6,28.0,29.0,15.8,8.0,91,50,29,0.00,40.00,19,6,25,0.00
2013-3-22,42.0,33.1,25.0,21.0,17.5,12.0,74,53,38,0.00,40.00,20,9,29,0.00
2013-3-23,48.0,38.0,30.0,22.0,19.2,16.0,62,48,32,0.00,40.00,22,10,31,0.00
2013-3-24,49.0,39.3,26.0,26.0,19.5,17.0,83,47,29,0.00,40.00,15,5,21,0.00
2013-3-25,40.0,39.3,39.0,25.0,24.7,24.0,58,56,54,0.00,40.00,5,2,10,0.00
2013-3-26,54.0,41.6,34.0,35.0,28.6,19.0,96,66,29,0.00,40.00,13,5,24,0.00
2013-3-27,54.0,39.7,27.0,36.0,26.4,20.0,96,65,27,0.00,40.00,20,6,29,0.00
2013-3-28,49.0,40.7,28.0,32.0,26.9,23.0,95,62,38,0.00,40.00,12,5,21,0.00
2013-3-29,55.0,44.2,29.0,34.0,26.2,23.0,92,52,31,0.00,40.00,14,6,23,0.00
2013-3-30,60.0,43.4,28.0,36.0,23.0,-99.9,97,55,18,0.00,40.00,14,4,21,0.00
2013-3-31,57.0,42.2,28.0,45.0,32.3,25.0,95,72,34,0.00,40.00,17,5,25,0.00